sensor_id;sensor_type;location;lat;lon;timestamp;pressure;altitude;pressure_sealevel;temperature;humidity
21821;BME280;11073;48.586;12.066;2023-03-01T00:00:08;97100.03;;;3.67;53.06
21821;BME280;11073;48.586;12.066;2023-03-01T00:02:58;97101.44;;;3.63;53.14
21821;BME280;11073;48.586;12.066;2023-03-01T00:05:47;97099.72;;;3.62;53.14
21821;BME280;11073;48.586;12.066;2023-03-01T00:08:36;97099.16;;;3.51;53.13
21821;BME280;11073;48.586;12.066;2023-03-01T00:11:28;97096.78;;;3.56;53.11
21821;BME280;11073;48.586;12.066;2023-03-01T00:14:17;97091.88;;;3.60;53.18
21821;BME280;11073;48.586;12.066;2023-03-01T00:17:06;97071.66;;;3.57;53.15
21821;BME280;11073;48.586;12.066;2023-03-01T00:19:55;97091.16;;;3.66;53.11
21821;BME280;11073;48.586;12.066;2023-03-01T00:22:45;97092.00;;;3.67;53.25
21821;BME280;11073;48.586;12.066;2023-03-01T00:25:41;97089.22;;;3.60;53.19
21821;BME280;11073;48.586;12.066;2023-03-01T00:28:31;97087.25;;;3.54;53.14
21821;BME280;11073;48.586;12.066;2023-03-01T00:31:22;97083.09;;;3.51;53.17
21821;BME280;11073;48.586;12.066;2023-03-01T00:34:12;97079.19;;;3.54;53.20
21821;BME280;11073;48.586;12.066;2023-03-01T00:37:01;97072.50;;;3.58;53.26
21821;BME280;11073;48.586;12.066;2023-03-01T00:39:52;97067.78;;;3.60;53.32
21821;BME280;11073;48.586;12.066;2023-03-01T00:42:42;97058.81;;;3.53;53.28
21821;BME280;11073;48.586;12.066;2023-03-01T00:45:33;97067.97;;;3.58;53.16
21821;BME280;11073;48.586;12.066;2023-03-01T00:48:23;97075.25;;;3.50;53.13
21821;BME280;11073;48.586;12.066;2023-03-01T00:51:14;97073.91;;;3.46;53.16
21821;BME280;11073;48.586;12.066;2023-03-01T00:54:03;97067.22;;;3.50;53.16
21821;BME280;11073;48.586;12.066;2023-03-01T00:56:52;97059.19;;;3.50;53.27
21821;BME280;11073;48.586;12.066;2023-03-01T00:59:41;97071.34;;;3.29;52.92
21821;BME280;11073;48.586;12.066;2023-03-01T01:02:33;97064.53;;;3.27;53.24
21821;BME280;11073;48.586;12.066;2023-03-01T01:05:23;97070.34;;;3.30;53.38
21821;BME280;11073;48.586;12.066;2023-03-01T01:08:13;97068.50;;;3.31;53.44
21821;BME280;11073;48.586;12.066;2023-03-01T01:11:02;97057.97;;;3.29;53.09
21821;BME280;11073;48.586;12.066;2023-03-01T01:13:52;97045.59;;;3.06;53.03
21821;BME280;11073;48.586;12.066;2023-03-01T01:16:42;97049.06;;;3.14;53.20
21821;BME280;11073;48.586;12.066;2023-03-01T01:19:32;97045.19;;;3.17;53.14
21821;BME280;11073;48.586;12.066;2023-03-01T01:22:23;97033.19;;;3.13;53.22
21821;BME280;11073;48.586;12.066;2023-03-01T01:25:12;97040.84;;;3.16;53.29
21821;BME280;11073;48.586;12.066;2023-03-01T01:28:01;97034.84;;;3.14;53.32
21821;BME280;11073;48.586;12.066;2023-03-01T01:30:50;97032.88;;;3.08;53.31
21821;BME280;11073;48.586;12.066;2023-03-01T01:33:40;97033.44;;;2.95;53.07
21821;BME280;11073;48.586;12.066;2023-03-01T01:36:31;97038.97;;;2.93;53.22
21821;BME280;11073;48.586;12.066;2023-03-01T01:39:20;97033.81;;;2.92;53.12
21821;BME280;11073;48.586;12.066;2023-03-01T01:42:14;97035.72;;;2.75;53.10
21821;BME280;11073;48.586;12.066;2023-03-01T01:45:26;97035.56;;;2.76;53.43
21821;BME280;11073;48.586;12.066;2023-03-01T01:48:19;97038.06;;;2.78;53.50
21821;BME280;11073;48.586;12.066;2023-03-01T01:51:11;97034.06;;;2.74;53.53
21821;BME280;11073;48.586;12.066;2023-03-01T01:54:07;97030.91;;;2.70;53.76
21821;BME280;11073;48.586;12.066;2023-03-01T01:57:00;97021.75;;;2.65;53.86
21821;BME280;11073;48.586;12.066;2023-03-01T01:59:52;97024.78;;;2.62;54.01
21821;BME280;11073;48.586;12.066;2023-03-01T02:02:44;97025.13;;;2.59;54.12
21821;BME280;11073;48.586;12.066;2023-03-01T02:05:38;97021.78;;;2.57;54.11
21821;BME280;11073;48.586;12.066;2023-03-01T02:08:33;97008.66;;;2.47;54.05
21821;BME280;11073;48.586;12.066;2023-03-01T02:11:25;97010.59;;;2.53;54.33
21821;BME280;11073;48.586;12.066;2023-03-01T02:14:16;97006.81;;;2.47;54.41
21821;BME280;11073;48.586;12.066;2023-03-01T02:17:05;97004.13;;;2.47;54.52
21821;BME280;11073;48.586;12.066;2023-03-01T02:20:02;97006.13;;;2.45;54.52
21821;BME280;11073;48.586;12.066;2023-03-01T02:22:55;96999.47;;;2.41;54.69
21821;BME280;11073;48.586;12.066;2023-03-01T02:25:49;97001.50;;;2.39;54.67
21821;BME280;11073;48.586;12.066;2023-03-01T02:28:42;96996.47;;;2.36;54.73
21821;BME280;11073;48.586;12.066;2023-03-01T02:31:33;97002.34;;;2.32;54.94
21821;BME280;11073;48.586;12.066;2023-03-01T02:34:32;97009.25;;;2.18;54.86
21821;BME280;11073;48.586;12.066;2023-03-01T02:37:21;97007.75;;;2.15;55.10
21821;BME280;11073;48.586;12.066;2023-03-01T02:40:15;97006.44;;;2.11;55.11
21821;BME280;11073;48.586;12.066;2023-03-01T02:43:08;97000.25;;;2.11;55.13
21821;BME280;11073;48.586;12.066;2023-03-01T02:46:05;97000.25;;;2.11;55.33
21821;BME280;11073;48.586;12.066;2023-03-01T02:48:55;97001.94;;;2.12;55.31
21821;BME280;11073;48.586;12.066;2023-03-01T02:54:58;96994.78;;;2.04;55.31
21821;BME280;11073;48.586;12.066;2023-03-01T02:57:49;96986.91;;;2.03;55.37
21821;BME280;11073;48.586;12.066;2023-03-01T03:00:41;96988.94;;;2.01;55.33
21821;BME280;11073;48.586;12.066;2023-03-01T03:03:36;96973.28;;;1.89;55.58
21821;BME280;11073;48.586;12.066;2023-03-01T03:06:26;96968.28;;;1.86;55.50
21821;BME280;11073;48.586;12.066;2023-03-01T03:12:06;96974.28;;;1.80;55.57
21821;BME280;11073;48.586;12.066;2023-03-01T03:14:55;96973.47;;;1.80;55.78
21821;BME280;11073;48.586;12.066;2023-03-01T03:17:44;96959.13;;;1.73;55.73
21821;BME280;11073;48.586;12.066;2023-03-01T03:20:34;96978.81;;;1.80;55.67
21821;BME280;11073;48.586;12.066;2023-03-01T03:23:24;96956.19;;;1.59;55.99
21821;BME280;11073;48.586;12.066;2023-03-01T03:26:13;96975.97;;;1.73;55.79
21821;BME280;11073;48.586;12.066;2023-03-01T03:29:02;96969.00;;;1.64;55.91
21821;BME280;11073;48.586;12.066;2023-03-01T03:31:51;96970.34;;;1.60;55.94
21821;BME280;11073;48.586;12.066;2023-03-01T03:34:40;96960.97;;;1.64;56.03
21821;BME280;11073;48.586;12.066;2023-03-01T03:37:31;96961.81;;;1.64;56.04
21821;BME280;11073;48.586;12.066;2023-03-01T03:40:39;96962.16;;;1.61;55.97
21821;BME280;11073;48.586;12.066;2023-03-01T03:43:31;96958.31;;;1.64;56.05
21821;BME280;11073;48.586;12.066;2023-03-01T03:46:20;96949.97;;;1.59;56.16
21821;BME280;11073;48.586;12.066;2023-03-01T03:49:09;96958.84;;;1.59;56.24
21821;BME280;11073;48.586;12.066;2023-03-01T03:51:58;96957.31;;;1.57;56.21
21821;BME280;11073;48.586;12.066;2023-03-01T03:54:48;96954.00;;;1.55;56.24
21821;BME280;11073;48.586;12.066;2023-03-01T03:57:37;96953.81;;;1.56;56.30
21821;BME280;11073;48.586;12.066;2023-03-01T04:00:26;96947.84;;;1.54;56.22
21821;BME280;11073;48.586;12.066;2023-03-01T04:03:16;96948.16;;;1.51;56.38
21821;BME280;11073;48.586;12.066;2023-03-01T04:06:06;96946.50;;;1.50;56.40
21821;BME280;11073;48.586;12.066;2023-03-01T04:08:55;96948.00;;;1.45;56.37
21821;BME280;11073;48.586;12.066;2023-03-01T04:11:49;96944.03;;;1.41;56.26
21821;BME280;11073;48.586;12.066;2023-03-01T04:14:38;96940.84;;;1.37;56.48
21821;BME280;11073;48.586;12.066;2023-03-01T04:17:28;96940.19;;;1.35;56.59
21821;BME280;11073;48.586;12.066;2023-03-01T04:20:19;96933.19;;;1.34;56.72
21821;BME280;11073;48.586;12.066;2023-03-01T04:23:14;96938.84;;;1.39;56.68
21821;BME280;11073;48.586;12.066;2023-03-01T04:26:07;96931.69;;;1.31;56.69
21821;BME280;11073;48.586;12.066;2023-03-01T04:28:57;96939.88;;;1.38;56.64
21821;BME280;11073;48.586;12.066;2023-03-01T04:31:47;96935.69;;;1.35;56.75
21821;BME280;11073;48.586;12.066;2023-03-01T04:34:38;96936.88;;;1.33;56.88
21821;BME280;11073;48.586;12.066;2023-03-01T04:37:27;96938.53;;;1.34;56.95
21821;BME280;11073;48.586;12.066;2023-03-01T04:40:17;96938.34;;;1.35;56.82
21821;BME280;11073;48.586;12.066;2023-03-01T04:43:06;96928.84;;;1.33;56.74
21821;BME280;11073;48.586;12.066;2023-03-01T04:46:01;96928.53;;;1.28;56.78
21821;BME280;11073;48.586;12.066;2023-03-01T04:48:51;96927.03;;;1.25;56.84
21821;BME280;11073;48.586;12.066;2023-03-01T04:51:40;96933.38;;;1.24;56.94
21821;BME280;11073;48.586;12.066;2023-03-01T04:54:30;96939.38;;;1.26;57.09
21821;BME280;11073;48.586;12.066;2023-03-01T04:57:19;96925.88;;;1.20;56.95
21821;BME280;11073;48.586;12.066;2023-03-01T05:00:11;96914.84;;;1.15;56.86
21821;BME280;11073;48.586;12.066;2023-03-01T05:03:09;96934.69;;;1.20;57.08
21821;BME280;11073;48.586;12.066;2023-03-01T05:05:58;96935.19;;;1.16;57.09
21821;BME280;11073;48.586;12.066;2023-03-01T05:08:48;96937.72;;;1.09;57.05
21821;BME280;11073;48.586;12.066;2023-03-01T05:11:37;96941.72;;;1.05;56.91
21821;BME280;11073;48.586;12.066;2023-03-01T05:14:26;96930.22;;;1.04;57.10
21821;BME280;11073;48.586;12.066;2023-03-01T05:17:17;96929.03;;;0.99;57.05
21821;BME280;11073;48.586;12.066;2023-03-01T05:20:09;96905.88;;;0.83;57.36
21821;BME280;11073;48.586;12.066;2023-03-01T05:22:59;96925.88;;;0.87;57.30
21821;BME280;11073;48.586;12.066;2023-03-01T05:25:52;96924.38;;;0.93;57.33
21821;BME280;11073;48.586;12.066;2023-03-01T05:28:42;96926.22;;;0.92;57.31
21821;BME280;11073;48.586;12.066;2023-03-01T05:31:31;96921.22;;;0.89;57.42
21821;BME280;11073;48.586;12.066;2023-03-01T05:34:23;96921.38;;;0.88;57.22
21821;BME280;11073;48.586;12.066;2023-03-01T05:37:14;96924.53;;;0.83;57.31
21821;BME280;11073;48.586;12.066;2023-03-01T05:40:03;96922.22;;;0.80;57.48
21821;BME280;11073;48.586;12.066;2023-03-01T05:42:55;96920.22;;;0.82;57.51
21821;BME280;11073;48.586;12.066;2023-03-01T05:45:45;96920.53;;;0.79;57.46
21821;BME280;11073;48.586;12.066;2023-03-01T05:48:34;96911.38;;;0.73;57.64
21821;BME280;11073;48.586;12.066;2023-03-01T05:51:23;96924.72;;;0.81;57.48
21821;BME280;11073;48.586;12.066;2023-03-01T05:54:13;96923.72;;;0.82;57.58
21821;BME280;11073;48.586;12.066;2023-03-01T05:57:01;96924.72;;;0.73;57.46
21821;BME280;11073;48.586;12.066;2023-03-01T05:59:50;96925.19;;;0.69;57.49
21821;BME280;11073;48.586;12.066;2023-03-01T06:02:39;96916.03;;;0.63;57.52
21821;BME280;11073;48.586;12.066;2023-03-01T06:05:29;96933.84;;;0.54;57.65
21821;BME280;11073;48.586;12.066;2023-03-01T06:08:18;96928.84;;;0.60;57.75
21821;BME280;11073;48.586;12.066;2023-03-01T06:11:09;96927.50;;;0.55;57.65
21821;BME280;11073;48.586;12.066;2023-03-01T06:13:57;96934.19;;;0.60;57.70
21821;BME280;11073;48.586;12.066;2023-03-01T06:16:46;96936.19;;;0.66;57.80
21821;BME280;11073;48.586;12.066;2023-03-01T06:19:35;96929.69;;;0.68;57.76
21821;BME280;11073;48.586;12.066;2023-03-01T06:22:24;96929.03;;;0.66;57.77
21821;BME280;11073;48.586;12.066;2023-03-01T06:25:18;96931.00;;;0.72;57.86
21821;BME280;11073;48.586;12.066;2023-03-01T06:28:08;96934.53;;;0.73;58.08
21821;BME280;11073;48.586;12.066;2023-03-01T06:30:57;96936.03;;;0.75;57.73
21821;BME280;11073;48.586;12.066;2023-03-01T06:33:47;96934.53;;;0.81;57.93
21821;BME280;11073;48.586;12.066;2023-03-01T06:36:36;96926.22;;;0.84;57.84
21821;BME280;11073;48.586;12.066;2023-03-01T06:39:27;96932.72;;;0.90;57.73
21821;BME280;11073;48.586;12.066;2023-03-01T06:42:16;96934.03;;;0.94;57.60
21821;BME280;11073;48.586;12.066;2023-03-01T06:45:09;96890.06;;;0.73;57.72
21821;BME280;11073;48.586;12.066;2023-03-01T06:48:02;96936.38;;;0.97;57.72
21821;BME280;11073;48.586;12.066;2023-03-01T06:50:52;96925.38;;;0.92;57.57
21821;BME280;11073;48.586;12.066;2023-03-01T06:53:41;96931.88;;;0.97;57.66
21821;BME280;11073;48.586;12.066;2023-03-01T06:56:29;96932.53;;;0.99;57.57
21821;BME280;11073;48.586;12.066;2023-03-01T06:59:19;96924.88;;;1.04;57.44
21821;BME280;11073;48.586;12.066;2023-03-01T07:02:11;96927.19;;;1.07;57.31
21821;BME280;11073;48.586;12.066;2023-03-01T07:05:00;96925.72;;;1.05;57.32
21821;BME280;11073;48.586;12.066;2023-03-01T07:07:49;96913.19;;;1.14;57.37
21821;BME280;11073;48.586;12.066;2023-03-01T07:10:37;96920.06;;;1.16;57.23
21821;BME280;11073;48.586;12.066;2023-03-01T07:13:27;96918.53;;;1.22;57.09
21821;BME280;11073;48.586;12.066;2023-03-01T07:16:16;96919.50;;;1.29;57.18
21821;BME280;11073;48.586;12.066;2023-03-01T07:19:09;96914.16;;;1.37;57.06
21821;BME280;11073;48.586;12.066;2023-03-01T07:21:58;96916.69;;;1.38;56.96
21821;BME280;11073;48.586;12.066;2023-03-01T07:24:46;96918.66;;;1.45;56.76
21821;BME280;11073;48.586;12.066;2023-03-01T07:27:35;96916.97;;;1.52;56.74
21821;BME280;11073;48.586;12.066;2023-03-01T07:30:25;96913.13;;;1.62;56.60
21821;BME280;11073;48.586;12.066;2023-03-01T07:33:16;96913.75;;;1.73;56.55
21821;BME280;11073;48.586;12.066;2023-03-01T07:36:08;96913.06;;;1.79;56.36
21821;BME280;11073;48.586;12.066;2023-03-01T07:38:58;96919.06;;;1.89;56.06
21821;BME280;11073;48.586;12.066;2023-03-01T07:41:49;96914.22;;;1.84;55.82
21821;BME280;11073;48.586;12.066;2023-03-01T07:44:41;96913.16;;;1.93;55.88
21821;BME280;11073;48.586;12.066;2023-03-01T07:47:30;96916.63;;;2.02;55.62
21821;BME280;11073;48.586;12.066;2023-03-01T07:50:19;96914.25;;;2.15;55.58
21821;BME280;11073;48.586;12.066;2023-03-01T07:53:10;96915.72;;;2.26;55.42
21821;BME280;11073;48.586;12.066;2023-03-01T07:56:03;96910.38;;;2.26;54.93
21821;BME280;11073;48.586;12.066;2023-03-01T07:58:53;96908.16;;;2.30;55.00
21821;BME280;11073;48.586;12.066;2023-03-01T08:01:41;96912.09;;;2.42;54.65
21821;BME280;11073;48.586;12.066;2023-03-01T08:04:31;96909.19;;;2.52;54.51
21821;BME280;11073;48.586;12.066;2023-03-01T08:07:20;96917.28;;;2.66;54.37
21821;BME280;11073;48.586;12.066;2023-03-01T08:10:11;96909.31;;;3.04;55.69
21821;BME280;11073;48.586;12.066;2023-03-01T08:13:00;96907.81;;;3.24;54.63
21821;BME280;11073;48.586;12.066;2023-03-01T08:15:49;96903.19;;;3.33;53.98
21821;BME280;11073;48.586;12.066;2023-03-01T08:18:38;96901.84;;;3.52;53.74
21821;BME280;11073;48.586;12.066;2023-03-01T08:21:27;96894.56;;;3.60;53.38
21821;BME280;11073;48.586;12.066;2023-03-01T08:24:16;96897.00;;;3.70;53.03
21821;BME280;11073;48.586;12.066;2023-03-01T08:27:06;96887.84;;;3.79;52.85
21821;BME280;11073;48.586;12.066;2023-03-01T08:29:55;96891.97;;;3.97;52.47
21821;BME280;11073;48.586;12.066;2023-03-01T08:32:44;96896.50;;;4.11;52.40
21821;BME280;11073;48.586;12.066;2023-03-01T08:35:33;96883.75;;;4.13;52.01
21821;BME280;11073;48.586;12.066;2023-03-01T08:38:23;96892.50;;;4.22;51.70
21821;BME280;11073;48.586;12.066;2023-03-01T08:41:12;96885.47;;;4.35;51.40
21821;BME280;11073;48.586;12.066;2023-03-01T08:44:03;96875.06;;;4.47;50.98
21821;BME280;11073;48.586;12.066;2023-03-01T08:46:51;96878.09;;;4.59;50.52
21821;BME280;11073;48.586;12.066;2023-03-01T08:49:41;96878.38;;;4.70;50.25
21821;BME280;11073;48.586;12.066;2023-03-01T08:52:32;96878.53;;;4.84;50.01
21821;BME280;11073;48.586;12.066;2023-03-01T08:55:21;96881.13;;;4.98;49.74
21821;BME280;11073;48.586;12.066;2023-03-01T08:58:09;96866.66;;;5.21;49.61
21821;BME280;11073;48.586;12.066;2023-03-01T09:01:00;96868.22;;;5.30;49.30
21821;BME280;11073;48.586;12.066;2023-03-01T09:03:50;96872.09;;;5.56;49.09
21821;BME280;11073;48.586;12.066;2023-03-01T09:06:39;96872.44;;;5.74;48.70
21821;BME280;11073;48.586;12.066;2023-03-01T09:09:28;96874.41;;;5.93;48.42
21821;BME280;11073;48.586;12.066;2023-03-01T09:12:17;96870.81;;;5.86;47.89
21821;BME280;11073;48.586;12.066;2023-03-01T09:15:07;96876.56;;;6.04;47.79
21821;BME280;11073;48.586;12.066;2023-03-01T09:17:58;96867.97;;;6.29;47.63
21821;BME280;11073;48.586;12.066;2023-03-01T09:20:47;96870.47;;;6.37;47.26
21821;BME280;11073;48.586;12.066;2023-03-01T09:23:37;96853.16;;;6.53;46.83
21821;BME280;11073;48.586;12.066;2023-03-01T09:26:27;96868.75;;;6.84;46.70
21821;BME280;11073;48.586;12.066;2023-03-01T09:29:16;96856.75;;;6.93;46.18
21821;BME280;11073;48.586;12.066;2023-03-01T09:32:05;96846.78;;;6.74;45.89
21821;BME280;11073;48.586;12.066;2023-03-01T09:34:56;96860.69;;;6.97;45.88
21821;BME280;11073;48.586;12.066;2023-03-01T09:37:54;96855.09;;;7.12;45.45
21821;BME280;11073;48.586;12.066;2023-03-01T09:40:44;96853.44;;;7.31;45.22
21821;BME280;11073;48.586;12.066;2023-03-01T09:43:47;96824.03;;;6.89;44.65
21821;BME280;11073;48.586;12.066;2023-03-01T09:46:44;96845.16;;;7.12;44.77
21821;BME280;11073;48.586;12.066;2023-03-01T09:49:35;96843.69;;;7.43;44.63
21821;BME280;11073;48.586;12.066;2023-03-01T09:52:30;96841.78;;;7.77;44.39
21821;BME280;11073;48.586;12.066;2023-03-01T09:55:26;96839.44;;;8.00;44.00
21821;BME280;11073;48.586;12.066;2023-03-01T09:58:33;96819.72;;;8.06;43.71
21821;BME280;11073;48.586;12.066;2023-03-01T10:01:29;96834.50;;;8.48;43.74
21821;BME280;11073;48.586;12.066;2023-03-01T10:04:28;96830.28;;;8.59;43.01
21821;BME280;11073;48.586;12.066;2023-03-01T10:07:32;96826.22;;;8.43;42.71
21821;BME280;11073;48.586;12.066;2023-03-01T10:10:28;96819.38;;;8.41;42.55
21821;BME280;11073;48.586;12.066;2023-03-01T10:13:24;96824.78;;;8.72;42.59
21821;BME280;11073;48.586;12.066;2023-03-01T10:16:18;96792.56;;;8.46;42.17
21821;BME280;11073;48.586;12.066;2023-03-01T10:19:13;96794.34;;;8.59;41.84
21821;BME280;11073;48.586;12.066;2023-03-01T10:22:09;96808.06;;;8.89;41.82
21821;BME280;11073;48.586;12.066;2023-03-01T10:25:03;96809.25;;;8.68;41.54
21821;BME280;11073;48.586;12.066;2023-03-01T10:27:54;96804.31;;;8.90;41.33
21821;BME280;11073;48.586;12.066;2023-03-01T10:30:45;96803.94;;;8.86;41.08
21821;BME280;11073;48.586;12.066;2023-03-01T10:33:37;96794.50;;;8.70;41.24
21821;BME280;11073;48.586;12.066;2023-03-01T10:36:28;96797.16;;;8.77;41.01
21821;BME280;11073;48.586;12.066;2023-03-01T10:39:22;96794.91;;;9.24;41.25
21821;BME280;11073;48.586;12.066;2023-03-01T10:42:25;96795.91;;;9.29;40.43
21821;BME280;11073;48.586;12.066;2023-03-01T10:45:17;96777.06;;;9.23;40.57
21821;BME280;11073;48.586;12.066;2023-03-01T10:48:16;96788.53;;;9.80;40.50
21821;BME280;11073;48.586;12.066;2023-03-01T10:51:07;96788.50;;;10.16;40.41
21821;BME280;11073;48.586;12.066;2023-03-01T10:53:56;96780.22;;;10.48;39.89
21821;BME280;11073;48.586;12.066;2023-03-01T10:56:47;96777.19;;;10.26;39.41
21821;BME280;11073;48.586;12.066;2023-03-01T10:59:38;96772.53;;;10.15;39.35
21821;BME280;11073;48.586;12.066;2023-03-01T11:02:29;96761.22;;;10.66;39.39
21821;BME280;11073;48.586;12.066;2023-03-01T11:05:23;96755.41;;;10.51;38.72
21821;BME280;11073;48.586;12.066;2023-03-01T11:08:12;96748.63;;;10.72;38.93
21821;BME280;11073;48.586;12.066;2023-03-01T11:11:12;96750.88;;;10.75;38.49
21821;BME280;11073;48.586;12.066;2023-03-01T11:14:07;96745.25;;;11.00;38.54
21821;BME280;11073;48.586;12.066;2023-03-01T11:17:17;96731.84;;;11.17;38.31
21821;BME280;11073;48.586;12.066;2023-03-01T11:20:20;96735.09;;;10.72;37.91
21821;BME280;11073;48.586;12.066;2023-03-01T11:23:15;96722.09;;;11.16;38.14
21821;BME280;11073;48.586;12.066;2023-03-01T11:26:07;96713.13;;;11.39;37.90
21821;BME280;11073;48.586;12.066;2023-03-01T11:29:04;96712.47;;;11.72;37.90
21821;BME280;11073;48.586;12.066;2023-03-01T11:31:56;96712.16;;;12.08;37.75
21821;BME280;11073;48.586;12.066;2023-03-01T11:34:54;96712.59;;;12.46;37.35
21821;BME280;11073;48.586;12.066;2023-03-01T11:37:56;96704.81;;;12.66;37.03
21821;BME280;11073;48.586;12.066;2023-03-01T11:40:51;96709.47;;;12.82;36.80
21821;BME280;11073;48.586;12.066;2023-03-01T11:43:49;96705.09;;;12.98;36.66
21821;BME280;11073;48.586;12.066;2023-03-01T11:47:12;96686.88;;;13.15;36.68
21821;BME280;11073;48.586;12.066;2023-03-01T11:50:13;96687.38;;;13.29;36.19
21821;BME280;11073;48.586;12.066;2023-03-01T11:53:23;96673.00;;;13.50;36.11
21821;BME280;11073;48.586;12.066;2023-03-01T11:56:25;96678.72;;;13.71;35.97
21821;BME280;11073;48.586;12.066;2023-03-01T11:59:45;96673.72;;;13.85;35.85
21821;BME280;11073;48.586;12.066;2023-03-01T12:06:26;96662.09;;;14.16;34.87
21821;BME280;11073;48.586;12.066;2023-03-01T12:09:27;96665.16;;;14.47;35.25
21821;BME280;11073;48.586;12.066;2023-03-01T12:12:34;96646.44;;;14.28;34.73
21821;BME280;11073;48.586;12.066;2023-03-01T12:15:37;96657.09;;;14.57;34.38
21821;BME280;11073;48.586;12.066;2023-03-01T12:18:41;96649.94;;;14.78;34.36
21821;BME280;11073;48.586;12.066;2023-03-01T12:21:53;96658.00;;;15.00;34.24
21821;BME280;11073;48.586;12.066;2023-03-01T12:25:27;96644.38;;;15.00;33.66
21821;BME280;11073;48.586;12.066;2023-03-01T12:28:40;96646.03;;;15.06;33.74
21821;BME280;11073;48.586;12.066;2023-03-01T12:31:57;96642.66;;;15.31;33.61
21821;BME280;11073;48.586;12.066;2023-03-01T12:35:20;96637.72;;;15.28;33.39
21821;BME280;11073;48.586;12.066;2023-03-01T12:38:25;96629.03;;;15.31;33.17
21821;BME280;11073;48.586;12.066;2023-03-01T12:41:32;96628.06;;;15.10;33.10
21821;BME280;11073;48.586;12.066;2023-03-01T12:44:37;96625.91;;;15.12;32.90
21821;BME280;11073;48.586;12.066;2023-03-01T12:47:46;96625.75;;;15.29;33.06
21821;BME280;11073;48.586;12.066;2023-03-01T12:50:42;96623.94;;;15.50;33.02
21821;BME280;11073;48.586;12.066;2023-03-01T12:53:36;96610.09;;;15.61;32.85
21821;BME280;11073;48.586;12.066;2023-03-01T12:56:29;96615.91;;;15.75;32.72
21821;BME280;11073;48.586;12.066;2023-03-01T12:59:24;96612.38;;;15.85;32.56
21821;BME280;11073;48.586;12.066;2023-03-01T13:02:24;96615.13;;;15.90;32.55
21821;BME280;11073;48.586;12.066;2023-03-01T13:05:35;96603.97;;;15.96;32.45
21821;BME280;11073;48.586;12.066;2023-03-01T13:08:33;96603.19;;;16.11;32.34
21821;BME280;11073;48.586;12.066;2023-03-01T13:11:25;96599.91;;;16.19;32.28
21821;BME280;11073;48.586;12.066;2023-03-01T13:14:37;96607.84;;;16.26;32.33
21821;BME280;11073;48.586;12.066;2023-03-01T13:17:41;96608.94;;;16.25;32.05
21821;BME280;11073;48.586;12.066;2023-03-01T13:20:46;96611.72;;;16.45;32.04
21821;BME280;11073;48.586;12.066;2023-03-01T13:23:37;96615.81;;;16.48;31.71
21821;BME280;11073;48.586;12.066;2023-03-01T13:26:26;96612.81;;;16.65;31.72
21821;BME280;11073;48.586;12.066;2023-03-01T13:29:26;96613.91;;;16.69;31.66
21821;BME280;11073;48.586;12.066;2023-03-01T13:32:22;96616.13;;;16.72;31.36
21821;BME280;11073;48.586;12.066;2023-03-01T13:35:43;96612.25;;;16.58;31.39
21821;BME280;11073;48.586;12.066;2023-03-01T13:38:38;96607.88;;;16.57;31.49
21821;BME280;11073;48.586;12.066;2023-03-01T13:41:51;96604.09;;;16.73;31.51
21821;BME280;11073;48.586;12.066;2023-03-01T13:44:42;96602.72;;;16.91;31.50
21821;BME280;11073;48.586;12.066;2023-03-01T13:47:33;96598.34;;;16.95;31.42
21821;BME280;11073;48.586;12.066;2023-03-01T13:50:25;96592.59;;;16.96;31.29
21821;BME280;11073;48.586;12.066;2023-03-01T13:53:18;96592.88;;;17.00;31.17
21821;BME280;11073;48.586;12.066;2023-03-01T13:56:12;96589.06;;;16.96;31.01
21821;BME280;11073;48.586;12.066;2023-03-01T13:59:04;96594.50;;;17.11;31.13
21821;BME280;11073;48.586;12.066;2023-03-01T14:01:56;96591.47;;;17.13;31.12
21821;BME280;11073;48.586;12.066;2023-03-01T14:04:55;96590.06;;;17.35;31.12
21821;BME280;11073;48.586;12.066;2023-03-01T14:07:50;96583.75;;;17.40;30.98
21821;BME280;11073;48.586;12.066;2023-03-01T14:10:47;96588.13;;;17.36;31.07
21821;BME280;11073;48.586;12.066;2023-03-01T14:13:51;96583.19;;;17.38;31.23
21821;BME280;11073;48.586;12.066;2023-03-01T14:16:49;96585.13;;;17.37;30.97
21821;BME280;11073;48.586;12.066;2023-03-01T14:19:45;96579.44;;;17.19;31.00
21821;BME280;11073;48.586;12.066;2023-03-01T14:22:36;96569.31;;;17.19;31.17
21821;BME280;11073;48.586;12.066;2023-03-01T14:25:27;96575.00;;;17.38;31.13
21821;BME280;11073;48.586;12.066;2023-03-01T14:28:21;96576.06;;;17.47;31.00
21821;BME280;11073;48.586;12.066;2023-03-01T14:31:31;96570.38;;;17.39;31.05
21821;BME280;11073;48.586;12.066;2023-03-01T14:34:33;96565.72;;;17.39;31.14
21821;BME280;11073;48.586;12.066;2023-03-01T14:37:25;96562.41;;;17.37;31.04
21821;BME280;11073;48.586;12.066;2023-03-01T14:40:22;96561.31;;;17.38;30.84
21821;BME280;11073;48.586;12.066;2023-03-01T14:43:20;96550.44;;;17.18;31.04
21821;BME280;11073;48.586;12.066;2023-03-01T14:46:18;96554.78;;;17.34;31.32
21821;BME280;11073;48.586;12.066;2023-03-01T14:49:11;96544.06;;;17.43;31.41
21821;BME280;11073;48.586;12.066;2023-03-01T14:52:03;96550.13;;;17.29;31.25
21821;BME280;11073;48.586;12.066;2023-03-01T14:54:54;96538.06;;;17.30;31.36
21821;BME280;11073;48.586;12.066;2023-03-01T14:57:46;96525.53;;;17.19;31.38
21821;BME280;11073;48.586;12.066;2023-03-01T15:00:37;96532.41;;;17.12;31.52
21821;BME280;11073;48.586;12.066;2023-03-01T15:03:30;96530.22;;;17.08;31.55
21821;BME280;11073;48.586;12.066;2023-03-01T15:06:22;96531.34;;;16.97;31.50
21821;BME280;11073;48.586;12.066;2023-03-01T15:09:14;96518.78;;;16.96;31.71
21821;BME280;11073;48.586;12.066;2023-03-01T15:12:31;96524.81;;;16.83;31.68
21821;BME280;11073;48.586;12.066;2023-03-01T15:15:35;96523.72;;;16.69;31.71
21821;BME280;11073;48.586;12.066;2023-03-01T15:18:27;96524.56;;;16.39;31.86
21821;BME280;11073;48.586;12.066;2023-03-01T15:21:21;96513.06;;;16.11;32.32
21821;BME280;11073;48.586;12.066;2023-03-01T15:24:17;96529.16;;;16.03;32.10